Terminal Aerodrome Forecast
Issued by NWS State College, PA

Home | Current Version | Previous Version | Text Only | Print | Product List | Glossary On
Versions: 1 2 3 4 5 6 7 8 9 10 11 12 13 14 15 16 17 18 19 20 21 22 23 24 25 26 27 28 29 30 31 32 33
000
FTUS41 KCTP 200331 AAA
TAFIPT
TAF AMD
KIPT 200331Z 2004/2024 00000KT P6SM SKC
     FM200800 00000KT 6SM BR SCT005
     FM201000 00000KT 1/2SM FG VV002
     FM201300 00000KT 2SM BR BKN005
     FM201400 VRB03KT P6SM SCT250=

USA.gov is the U.S. government's official web portal to all federal, state and local government web resources and services.